Terminal Aerodrome Forecast
Issued by NWS Memphis, TN

Home | Current Version | Previous Version | Text Only | Print | Product List | Glossary On
Versions: 1 2 3 4 5 6 7 8 9 10 11 12 13 14 15 16
000
FTUS44 KMEG 191128
TAFJBR
TAF
KJBR 191128Z 1912/2012 00000KT 1/4SM FG VV001
     FM191500 00000KT 1SM BR BKN005
      TEMPO 1915/1918 1/4SM FG VV001
     FM191800 15003KT 5SM BR BKN015
     FM191900 15005KT P6SM FEW030
     FM192200 15006KT P6SM SKC
     FM200000 10003KT P6SM BKN250=

USA.gov is the U.S. government's official web portal to all federal, state and local government web resources and services.